Time,TemperatureF,DewpointF,PressureIn,WindDirection,WindDirectionDegrees,WindSpeedMPH,WindSpeedGustMPH,Humidity,HourlyPrecipIn,Conditions,Clouds,dailyrainin,SoftwareType,DateUTC
2013-10-05 00:00:00,69.1,67.8,30.09,East,90,3.8,4.5,96,0.00,,,0.00,meteobridge,2013-10-05 04:00:00,
2013-10-05 00:01:00,69.3,68.0,30.09,East,90,3.1,3.8,96,0.00,,,0.00,meteobridge,2013-10-05 04:01:00,
2013-10-05 00:02:00,69.3,68.0,30.09,East,90,3.1,3.1,96,0.00,,,0.00,meteobridge,2013-10-05 04:02:00,
2013-10-05 00:03:00,69.3,68.0,30.09,East,90,3.1,3.8,96,0.00,,,0.00,meteobridge,2013-10-05 04:03:00,
2013-10-05 00:09:00,69.3,68.0,30.09,ESE,113,3.8,4.5,96,0.00,,,0.00,meteobridge,2013-10-05 04:09:00,
2013-10-05 00:14:00,69.3,68.0,30.10,SE,135,3.8,3.8,96,0.00,,,0.00,meteobridge,2013-10-05 04:14:00,
2013-10-05 00:19:00,69.3,68.0,30.09,SE,135,3.1,4.5,96,0.00,,,0.00,meteobridge,2013-10-05 04:19:00,
2013-10-05 00:24:00,69.3,68.0,30.09,SE,135,2.2,3.8,96,0.00,,,0.00,meteobridge,2013-10-05 04:24:00,
2013-10-05 00:29:00,69.3,68.0,30.09,East,90,1.6,2.2,96,0.00,,,0.00,meteobridge,2013-10-05 04:29:00,
2013-10-05 00:34:00,69.3,68.0,30.09,SE,135,2.2,2.2,96,0.00,,,0.00,meteobridge,2013-10-05 04:34:00,
2013-10-05 00:40:00,69.3,67.8,30.09,SE,135,0.0,0.7,95,0.00,,,0.00,meteobridge,2013-10-05 04:40:00,
2013-10-05 00:45:00,69.3,67.8,30.09,East,90,1.6,1.6,95,0.00,,,0.00,meteobridge,2013-10-05 04:45:00,
2013-10-05 00:50:00,69.1,67.6,30.09,SE,135,2.2,2.2,95,0.00,,,0.00,meteobridge,2013-10-05 04:50:00,
2013-10-05 00:55:00,69.1,67.6,30.09,SE,135,2.2,2.2,95,0.00,,,0.00,meteobridge,2013-10-05 04:55:00,
2013-10-05 01:00:00,68.7,67.3,30.09,SE,135,3.1,3.1,95,0.00,,,0.00,meteobridge,2013-10-05 05:00:00,
2013-10-05 01:05:00,68.4,66.9,30.09,SE,135,3.8,3.8,95,0.00,,,0.00,meteobridge,2013-10-05 05:05:00,
2013-10-05 01:11:00,68.4,67.1,30.09,SE,135,3.8,5.4,96,0.00,,,0.00,meteobridge,2013-10-05 05:11:00,
2013-10-05 01:16:00,68.5,67.6,30.09,South,180,0.0,3.1,97,0.00,,,0.00,meteobridge,2013-10-05 05:16:00,
2013-10-05 01:21:00,68.5,67.6,30.09,East,90,3.1,3.1,97,0.00,,,0.00,meteobridge,2013-10-05 05:21:00,
2013-10-05 01:26:00,68.4,67.1,30.09,South,180,0.7,0.7,96,0.00,,,0.00,meteobridge,2013-10-05 05:26:00,
2013-10-05 01:31:00,68.2,66.9,30.09,South,180,0.7,0.7,96,0.00,,,0.00,meteobridge,2013-10-05 05:31:00,
2013-10-05 01:36:00,68.2,66.9,30.09,SE,135,1.6,1.6,96,0.00,,,0.00,meteobridge,2013-10-05 05:36:00,
2013-10-05 01:42:00,68.0,66.7,30.09,SE,135,2.2,2.2,96,0.00,,,0.00,meteobridge,2013-10-05 05:42:00,
2013-10-05 01:47:00,67.8,66.9,30.09,SE,135,3.1,3.8,97,0.00,,,0.00,meteobridge,2013-10-05 05:47:00,
2013-10-05 01:52:00,67.6,66.7,30.09,SE,135,3.8,3.8,97,0.00,,,0.00,meteobridge,2013-10-05 05:52:00,
2013-10-05 01:57:00,67.5,66.9,30.09,SE,135,0.7,2.2,98,0.00,,,0.00,meteobridge,2013-10-05 05:57:00,
2013-10-05 02:02:00,67.5,66.9,30.09,SE,135,0.7,1.6,98,0.00,,,0.00,meteobridge,2013-10-05 06:02:00,
2013-10-05 02:08:00,67.3,66.7,30.09,East,90,3.1,3.1,98,0.00,,,0.00,meteobridge,2013-10-05 06:08:00,
2013-10-05 02:13:00,67.3,66.7,30.08,East,90,3.1,3.1,98,0.00,,,0.00,meteobridge,2013-10-05 06:13:00,
2013-10-05 02:18:00,67.3,66.7,30.09,East,90,3.1,3.1,98,0.00,,,0.00,meteobridge,2013-10-05 06:18:00,
2013-10-05 02:23:00,67.1,66.6,30.09,East,90,3.1,3.1,98,0.00,,,0.00,meteobridge,2013-10-05 06:23:00,
2013-10-05 02:28:00,66.9,66.6,30.09,SE,135,2.2,3.1,99,0.00,,,0.00,meteobridge,2013-10-05 06:28:00,
2013-10-05 02:33:00,66.9,66.6,30.09,SE,135,3.1,3.1,99,0.00,,,0.00,meteobridge,2013-10-05 06:33:00,
2013-10-05 02:39:00,66.7,66.4,30.09,SE,135,3.1,3.8,99,0.00,,,0.00,meteobridge,2013-10-05 06:39:00,
2013-10-05 02:44:00,66.6,66.2,30.09,SE,135,3.1,3.8,99,0.00,,,0.00,meteobridge,2013-10-05 06:44:00,
2013-10-05 02:49:00,66.6,66.2,30.09,East,90,3.8,3.8,99,0.00,,,0.00,meteobridge,2013-10-05 06:49:00,
2013-10-05 02:54:00,66.6,66.2,30.08,East,90,2.2,2.2,99,0.00,,,0.00,meteobridge,2013-10-05 06:54:00,
2013-10-05 02:59:00,66.6,66.2,30.08,SE,135,3.1,3.1,99,0.00,,,0.00,meteobridge,2013-10-05 06:59:00,
2013-10-05 03:04:00,66.4,66.0,30.08,East,90,2.2,3.1,99,0.00,,,0.00,meteobridge,2013-10-05 07:04:00,
2013-10-05 03:10:00,66.2,65.8,30.08,East,90,3.1,3.1,99,0.00,,,0.00,meteobridge,2013-10-05 07:10:00,
2013-10-05 03:15:00,66.2,65.8,30.08,East,90,3.8,3.8,99,0.00,,,0.00,meteobridge,2013-10-05 07:15:00,
2013-10-05 03:20:00,66.2,65.8,30.08,SE,135,2.2,2.2,99,0.00,,,0.00,meteobridge,2013-10-05 07:20:00,
2013-10-05 03:25:00,66.2,65.8,30.08,East,90,3.1,3.1,99,0.00,,,0.00,meteobridge,2013-10-05 07:25:00,
2013-10-05 03:30:00,66.4,66.0,30.08,SE,135,3.1,3.1,99,0.00,,,0.00,meteobridge,2013-10-05 07:30:00,
2013-10-05 03:35:00,66.4,66.0,30.08,SE,135,2.2,2.2,99,0.00,,,0.00,meteobridge,2013-10-05 07:35:00,
2013-10-05 03:41:00,66.2,65.8,30.08,SE,135,2.2,2.2,99,0.00,,,0.00,meteobridge,2013-10-05 07:41:00,
2013-10-05 03:46:00,66.0,65.7,30.08,SE,135,2.2,2.2,99,0.00,,,0.00,meteobridge,2013-10-05 07:46:00,
2013-10-05 03:51:00,66.0,65.7,30.08,East,90,3.8,3.8,99,0.00,,,0.00,meteobridge,2013-10-05 07:51:00,
2013-10-05 03:56:00,65.8,65.5,30.08,SE,135,3.1,3.1,99,0.00,,,0.00,meteobridge,2013-10-05 07:56:00,
2013-10-05 04:01:00,65.8,65.5,30.08,SE,135,2.2,3.1,99,0.00,,,0.00,meteobridge,2013-10-05 08:01:00,
2013-10-05 04:06:00,65.8,65.5,30.07,SE,135,3.1,3.8,99,0.00,,,0.00,meteobridge,2013-10-05 08:06:00,
2013-10-05 04:12:00,65.7,65.3,30.08,SE,135,1.6,2.2,99,0.00,,,0.00,meteobridge,2013-10-05 08:12:00,
2013-10-05 04:17:00,65.7,65.3,30.08,SE,135,1.6,1.6,99,0.00,,,0.00,meteobridge,2013-10-05 08:17:00,
2013-10-05 04:22:00,65.8,65.5,30.08,East,90,3.8,3.8,99,0.00,,,0.00,meteobridge,2013-10-05 08:22:00,
2013-10-05 04:27:00,65.3,64.9,30.07,East,90,3.8,3.8,99,0.00,,,0.00,meteobridge,2013-10-05 08:27:00,
2013-10-05 04:32:00,65.1,64.8,30.08,SE,135,3.1,3.1,99,0.00,,,0.00,meteobridge,2013-10-05 08:32:00,
2013-10-05 04:37:00,65.1,64.8,30.08,SE,135,3.1,3.1,99,0.00,,,0.00,meteobridge,2013-10-05 08:37:00,
2013-10-05 04:43:00,64.9,64.6,30.08,SE,135,3.1,3.1,99,0.00,,,0.00,meteobridge,2013-10-05 08:43:00,
2013-10-05 04:48:00,64.9,64.6,30.08,East,90,3.8,3.8,99,0.00,,,0.00,meteobridge,2013-10-05 08:48:00,
2013-10-05 04:53:00,64.8,64.4,30.07,East,90,3.1,3.8,99,0.00,,,0.00,meteobridge,2013-10-05 08:53:00,
2013-10-05 04:58:00,64.8,64.4,30.08,East,90,2.2,3.1,99,0.00,,,0.00,meteobridge,2013-10-05 08:58:00,
2013-10-05 05:03:00,64.8,64.4,30.08,SE,135,2.2,2.2,99,0.00,,,0.00,meteobridge,2013-10-05 09:03:00,
2013-10-05 05:08:00,64.8,64.4,30.08,SE,135,2.2,2.2,99,0.00,,,0.00,meteobridge,2013-10-05 09:08:00,
2013-10-05 05:14:00,64.8,64.4,30.08,SE,135,3.1,3.1,99,0.00,,,0.00,meteobridge,2013-10-05 09:14:00,
2013-10-05 05:19:00,64.6,64.2,30.08,East,90,3.1,3.8,99,0.00,,,0.00,meteobridge,2013-10-05 09:19:00,
2013-10-05 05:24:00,64.2,63.3,30.08,East,90,3.1,3.1,97,0.00,,,0.00,meteobridge,2013-10-05 09:24:00,
2013-10-05 05:29:00,64.2,63.3,30.08,SE,135,3.1,3.1,97,0.00,,,0.00,meteobridge,2013-10-05 09:29:00,
2013-10-05 05:34:00,64.2,63.3,30.08,SE,135,3.8,3.8,97,0.00,,,0.00,meteobridge,2013-10-05 09:34:00,
2013-10-05 05:39:00,64.2,63.3,30.09,SE,135,3.1,3.1,97,0.00,,,0.00,meteobridge,2013-10-05 09:39:00,
2013-10-05 05:45:00,64.2,63.3,30.09,SE,135,3.1,3.1,97,0.00,,,0.00,meteobridge,2013-10-05 09:45:00,
2013-10-05 05:50:00,64.2,63.3,30.09,SE,135,3.1,3.1,97,0.00,,,0.00,meteobridge,2013-10-05 09:50:00,
2013-10-05 05:55:00,64.2,63.3,30.09,East,90,3.1,3.1,97,0.00,,,0.00,meteobridge,2013-10-05 09:55:00,
2013-10-05 06:00:00,64.2,63.3,30.09,SE,135,3.1,3.1,97,0.00,,,0.00,meteobridge,2013-10-05 10:00:00,
2013-10-05 06:05:00,64.2,63.3,30.09,SE,135,1.6,3.1,97,0.00,,,0.00,meteobridge,2013-10-05 10:05:00,
2013-10-05 06:10:00,64.2,63.3,30.09,SE,135,3.1,3.1,97,0.00,,,0.00,meteobridge,2013-10-05 10:10:00,
2013-10-05 06:16:00,64.2,63.3,30.09,East,90,3.1,3.1,97,0.00,,,0.00,meteobridge,2013-10-05 10:16:00,
2013-10-05 06:21:00,64.0,63.1,30.09,SE,135,3.1,3.1,97,0.00,,,0.00,meteobridge,2013-10-05 10:21:00,
2013-10-05 06:26:00,64.0,63.1,30.09,East,90,2.2,3.1,97,0.00,,,0.00,meteobridge,2013-10-05 10:26:00,
2013-10-05 06:31:00,64.0,63.1,30.09,East,90,3.1,3.1,97,0.00,,,0.00,meteobridge,2013-10-05 10:31:00,
2013-10-05 06:36:00,64.0,63.1,30.10,East,90,3.1,3.1,97,0.00,,,0.00,meteobridge,2013-10-05 10:36:00,
2013-10-05 06:41:00,63.9,63.0,30.10,SE,135,3.1,3.1,97,0.00,,,0.00,meteobridge,2013-10-05 10:41:00,
2013-10-05 06:47:00,63.7,62.8,30.10,SE,135,3.8,3.8,97,0.00,,,0.00,meteobridge,2013-10-05 10:47:00,
2013-10-05 06:52:00,63.7,62.8,30.10,SE,135,3.1,3.1,97,0.00,,,0.00,meteobridge,2013-10-05 10:52:00,
2013-10-05 06:57:00,63.7,62.8,30.10,East,90,3.8,3.8,97,0.00,,,0.00,meteobridge,2013-10-05 10:57:00,
2013-10-05 07:02:00,63.5,62.6,30.10,East,90,3.8,3.8,97,0.00,,,0.00,meteobridge,2013-10-05 11:02:00,
2013-10-05 07:07:00,63.5,62.6,30.10,East,90,3.8,3.8,97,0.00,,,0.00,meteobridge,2013-10-05 11:07:00,
2013-10-05 07:12:00,63.5,62.6,30.10,East,90,3.1,3.8,97,0.00,,,0.00,meteobridge,2013-10-05 11:12:00,
2013-10-05 07:18:00,63.5,62.6,30.10,ESE,113,3.8,3.8,97,0.00,,,0.00,meteobridge,2013-10-05 11:18:00,
2013-10-05 07:23:00,63.5,62.6,30.10,East,90,3.8,3.8,97,0.00,,,0.00,meteobridge,2013-10-05 11:23:00,
2013-10-05 07:28:00,63.9,63.0,30.10,SE,135,2.2,2.2,97,0.00,,,0.00,meteobridge,2013-10-05 11:28:00,
2013-10-05 07:33:00,63.9,63.0,30.10,East,90,3.1,3.1,97,0.00,,,0.00,meteobridge,2013-10-05 11:33:00,
2013-10-05 07:38:00,63.9,63.0,30.10,East,90,2.2,3.1,97,0.00,,,0.00,meteobridge,2013-10-05 11:38:00,
2013-10-05 07:43:00,63.9,63.0,30.10,East,90,3.1,3.1,97,0.00,,,0.00,meteobridge,2013-10-05 11:43:00,
2013-10-05 07:49:00,63.9,63.0,30.10,East,90,3.1,3.1,97,0.00,,,0.00,meteobridge,2013-10-05 11:49:00,
2013-10-05 07:54:00,64.0,63.1,30.10,SE,135,3.1,3.8,97,0.00,,,0.00,meteobridge,2013-10-05 11:54:00,
2013-10-05 07:59:00,64.2,63.3,30.11,East,90,3.1,3.1,97,0.00,,,0.00,meteobridge,2013-10-05 11:59:00,
2013-10-05 08:04:00,65.8,65.5,30.10,East,90,2.2,3.1,99,0.00,,,0.00,meteobridge,2013-10-05 12:04:00,
2013-10-05 08:09:00,67.1,66.7,30.11,ESE,113,2.2,3.1,99,0.00,,,0.00,meteobridge,2013-10-05 12:09:00,
2013-10-05 08:14:00,68.0,67.6,30.11,East,90,1.6,3.1,99,0.00,,,0.00,meteobridge,2013-10-05 12:14:00,
2013-10-05 08:20:00,69.8,68.9,30.11,SE,135,1.6,1.6,97,0.00,,,0.00,meteobridge,2013-10-05 12:20:00,
2013-10-05 08:25:00,71.2,69.8,30.10,SE,135,1.6,1.6,95,0.00,,,0.00,meteobridge,2013-10-05 12:25:00,
2013-10-05 08:30:00,72.1,69.1,30.11,SE,135,1.6,1.6,90,0.00,,,0.00,meteobridge,2013-10-05 12:30:00,
2013-10-05 08:35:00,73.2,68.7,30.11,SE,135,0.7,1.6,86,0.00,,,0.00,meteobridge,2013-10-05 12:35:00,
2013-10-05 08:40:00,74.8,69.6,30.11,SE,135,1.6,1.6,84,0.00,,,0.00,meteobridge,2013-10-05 12:40:00,
2013-10-05 08:45:00,75.2,68.5,30.11,SE,135,1.6,1.6,80,0.00,,,0.00,meteobridge,2013-10-05 12:45:00,
2013-10-05 08:51:00,75.2,67.8,30.11,SE,135,1.6,1.6,78,0.00,,,0.00,meteobridge,2013-10-05 12:51:00,
2013-10-05 08:56:00,76.1,68.7,30.11,SE,135,1.6,1.6,78,0.00,,,0.00,meteobridge,2013-10-05 12:56:00,
2013-10-05 09:01:00,77.2,68.7,30.11,SE,135,0.7,1.6,75,0.00,,,0.00,meteobridge,2013-10-05 13:01:00,
2013-10-05 09:06:00,78.4,69.4,30.11,SE,135,1.6,1.6,74,0.00,,,0.00,meteobridge,2013-10-05 13:06:00,
2013-10-05 09:11:00,79.9,70.0,30.11,NE,45,0.7,0.7,72,0.00,,,0.00,meteobridge,2013-10-05 13:11:00,
2013-10-05 09:17:00,81.7,69.6,30.11,NW,315,1.6,1.6,67,0.00,,,0.00,meteobridge,2013-10-05 13:17:00,
2013-10-05 09:22:00,83.8,70.9,30.11,NW,315,1.6,1.6,65,0.00,,,0.00,meteobridge,2013-10-05 13:22:00,
2013-10-05 09:27:00,82.2,67.8,30.11,NW,315,2.2,2.2,62,0.00,,,0.00,meteobridge,2013-10-05 13:27:00,
2013-10-05 09:32:00,81.3,68.4,30.11,NW,315,1.6,1.6,65,0.00,,,0.00,meteobridge,2013-10-05 13:32:00,
2013-10-05 09:37:00,83.8,69.4,30.11,NW,315,0.7,1.6,62,0.00,,,0.00,meteobridge,2013-10-05 13:37:00,
2013-10-05 09:42:00,85.6,68.7,30.11,West,270,1.6,2.2,57,0.00,,,0.00,meteobridge,2013-10-05 13:42:00,
2013-10-05 09:48:00,84.0,68.7,30.11,West,270,1.6,1.6,60,0.00,,,0.00,meteobridge,2013-10-05 13:48:00,
2013-10-05 09:53:00,83.7,68.4,30.11,West,270,1.6,1.6,60,0.00,,,0.00,meteobridge,2013-10-05 13:53:00,
2013-10-05 09:58:00,86.4,69.3,30.11,NW,315,0.7,1.6,57,0.00,,,0.00,meteobridge,2013-10-05 13:58:00,
2013-10-05 10:03:00,88.0,68.7,30.11,West,270,2.2,2.2,53,0.00,,,0.00,meteobridge,2013-10-05 14:03:00,
2013-10-05 10:08:00,84.0,68.7,30.11,NW,315,4.5,4.5,60,0.00,,,0.00,meteobridge,2013-10-05 14:08:00,
2013-10-05 10:13:00,78.8,68.5,30.11,West,270,7.6,7.6,71,0.00,,,0.00,meteobridge,2013-10-05 14:13:00,
2013-10-05 10:19:00,77.7,68.4,30.11,SW,225,5.4,5.4,73,0.00,,,0.00,meteobridge,2013-10-05 14:19:00,
2013-10-05 10:24:00,78.6,68.4,30.11,West,270,3.1,3.8,71,0.00,,,0.00,meteobridge,2013-10-05 14:24:00,
2013-10-05 10:29:00,81.7,68.7,30.11,West,270,1.6,1.6,65,0.00,,,0.00,meteobridge,2013-10-05 14:29:00,
2013-10-05 10:34:00,85.8,69.3,30.11,SW,225,2.2,2.2,58,0.00,,,0.00,meteobridge,2013-10-05 14:34:00,
2013-10-05 10:39:00,86.0,68.5,30.11,North,0,1.6,1.6,56,0.00,,,0.00,meteobridge,2013-10-05 14:39:00,
2013-10-05 10:44:00,88.0,68.7,30.11,North,0,0.7,0.7,53,0.00,,,0.00,meteobridge,2013-10-05 14:44:00,
2013-10-05 10:50:00,91.9,70.7,30.11,SW,225,0.0,0.7,50,0.00,,,0.00,meteobridge,2013-10-05 14:50:00,
2013-10-05 10:55:00,94.5,69.8,30.11,SW,225,0.7,0.7,45,0.00,,,0.00,meteobridge,2013-10-05 14:55:00,
2013-10-05 11:00:00,93.0,69.8,30.11,West,270,1.6,1.6,47,0.00,,,0.00,meteobridge,2013-10-05 15:00:00,
2013-10-05 11:05:00,91.9,68.9,30.10,West,270,0.7,0.7,47,0.00,,,0.00,meteobridge,2013-10-05 15:05:00,
2013-10-05 11:10:00,91.2,68.7,30.11,West,270,2.2,2.2,48,0.00,,,0.00,meteobridge,2013-10-05 15:10:00,
2013-10-05 11:15:00,87.8,68.5,30.10,West,270,1.6,2.2,53,0.00,,,0.00,meteobridge,2013-10-05 15:15:00,
2013-10-05 11:21:00,89.1,70.2,30.11,NW,315,1.6,1.6,54,0.00,,,0.00,meteobridge,2013-10-05 15:21:00,
2013-10-05 11:26:00,92.3,70.9,30.11,NW,315,3.8,3.8,50,0.00,,,0.00,meteobridge,2013-10-05 15:26:00,
2013-10-05 11:31:00,88.5,68.7,30.11,West,270,3.1,3.8,52,0.00,,,0.00,meteobridge,2013-10-05 15:31:00,
2013-10-05 11:36:00,85.1,69.1,30.11,West,270,3.1,4.5,59,0.00,,,0.00,meteobridge,2013-10-05 15:36:00,
2013-10-05 11:41:00,84.6,69.1,30.11,West,270,3.8,4.5,60,0.00,,,0.00,meteobridge,2013-10-05 15:41:00,
2013-10-05 11:46:00,85.3,67.3,30.11,SW,225,3.8,4.5,55,0.00,,,0.00,meteobridge,2013-10-05 15:46:00,
2013-10-05 11:52:00,86.7,67.5,30.11,SSE,158,4.5,4.5,53,0.00,,,0.00,meteobridge,2013-10-05 15:52:00,
2013-10-05 11:57:00,88.2,64.8,30.11,NW,315,6.9,6.9,46,0.00,,,0.00,meteobridge,2013-10-05 15:57:00,
2013-10-05 12:02:00,88.3,64.9,30.11,SW,225,4.5,6.9,46,0.00,,,0.00,meteobridge,2013-10-05 16:02:00,
2013-10-05 12:07:00,89.6,64.2,30.11,SW,225,6.0,6.0,43,0.00,,,0.00,meteobridge,2013-10-05 16:07:00,
2013-10-05 12:12:00,88.3,64.2,30.10,South,180,9.2,9.2,45,0.00,,,0.00,meteobridge,2013-10-05 16:12:00,
2013-10-05 12:17:00,87.6,64.9,30.10,SW,225,6.0,7.6,47,0.00,,,0.00,meteobridge,2013-10-05 16:17:00,
2013-10-05 12:23:00,87.8,65.1,30.10,South,180,2.2,7.6,47,0.00,,,0.00,meteobridge,2013-10-05 16:23:00,
2013-10-05 12:28:00,87.4,67.1,30.10,West,270,8.3,8.3,51,0.00,,,0.00,meteobridge,2013-10-05 16:28:00,
2013-10-05 12:33:00,87.3,67.5,30.10,WSW,248,7.6,7.6,52,0.00,,,0.00,meteobridge,2013-10-05 16:33:00,
2013-10-05 12:38:00,86.4,67.3,30.09,West,270,7.6,9.2,53,0.00,,,0.00,meteobridge,2013-10-05 16:38:00,
2013-10-05 12:43:00,85.8,67.3,30.09,NW,315,7.6,9.2,54,0.00,,,0.00,meteobridge,2013-10-05 16:43:00,
2013-10-05 12:48:00,85.3,66.7,30.09,West,270,9.2,9.8,54,0.00,,,0.00,meteobridge,2013-10-05 16:48:00,
2013-10-05 12:54:00,85.1,67.1,30.09,West,270,9.2,9.8,55,0.00,,,0.00,meteobridge,2013-10-05 16:54:00,
2013-10-05 12:59:00,85.1,68.2,30.09,SW,225,9.2,12.1,57,0.00,,,0.00,meteobridge,2013-10-05 16:59:00,
2013-10-05 13:04:00,85.5,67.5,30.09,SW,225,9.8,10.7,55,0.00,,,0.00,meteobridge,2013-10-05 17:04:00,
2013-10-05 13:09:00,86.0,66.9,30.08,North,0,10.7,10.7,53,0.00,,,0.00,meteobridge,2013-10-05 17:09:00,
2013-10-05 13:14:00,86.2,67.1,30.09,West,270,9.2,9.8,53,0.00,,,0.00,meteobridge,2013-10-05 17:14:00,
2013-10-05 13:19:00,86.2,66.6,30.08,NNW,338,10.7,10.7,52,0.00,,,0.00,meteobridge,2013-10-05 17:19:00,
2013-10-05 13:25:00,86.7,65.8,30.08,WNW,293,9.2,9.8,50,0.00,,,0.00,meteobridge,2013-10-05 17:25:00,
2013-10-05 13:30:00,87.3,66.4,30.07,SW,225,5.4,8.3,50,0.00,,,0.00,meteobridge,2013-10-05 17:30:00,
2013-10-05 13:35:00,88.2,64.8,30.08,West,270,6.0,7.6,46,0.00,,,0.00,meteobridge,2013-10-05 17:35:00,
2013-10-05 13:40:00,88.0,64.0,30.07,West,270,5.4,8.3,45,0.00,,,0.00,meteobridge,2013-10-05 17:40:00,
2013-10-05 13:45:00,87.6,64.2,30.07,West,270,8.3,9.2,46,0.00,,,0.00,meteobridge,2013-10-05 17:45:00,
2013-10-05 13:50:00,87.8,64.4,30.06,West,270,8.3,8.3,46,0.00,,,0.00,meteobridge,2013-10-05 17:50:00,
2013-10-05 13:56:00,87.4,64.8,30.06,West,270,8.3,8.3,47,0.00,,,0.00,meteobridge,2013-10-05 17:56:00,
2013-10-05 14:01:00,87.3,64.6,30.07,West,270,9.8,9.8,47,0.00,,,0.00,meteobridge,2013-10-05 18:01:00,
2013-10-05 14:06:00,86.9,64.8,30.06,West,270,7.6,8.3,48,0.00,,,0.00,meteobridge,2013-10-05 18:06:00,
2013-10-05 14:11:00,87.3,65.8,30.06,West,270,9.2,9.2,49,0.00,,,0.00,meteobridge,2013-10-05 18:11:00,
2013-10-05 14:16:00,87.4,64.8,30.06,WSW,248,6.9,6.9,47,0.00,,,0.00,meteobridge,2013-10-05 18:16:00,
2013-10-05 14:21:00,88.3,64.2,30.06,West,270,5.4,5.4,45,0.00,,,0.00,meteobridge,2013-10-05 18:21:00,
2013-10-05 14:27:00,88.2,63.5,30.06,West,270,5.4,5.4,44,0.00,,,0.00,meteobridge,2013-10-05 18:27:00,
2013-10-05 14:32:00,88.2,63.5,30.06,West,270,5.4,6.9,44,0.00,,,0.00,meteobridge,2013-10-05 18:32:00,
2013-10-05 14:37:00,88.2,63.5,30.05,West,270,5.4,9.2,44,0.00,,,0.00,meteobridge,2013-10-05 18:37:00,
2013-10-05 14:42:00,88.9,64.2,30.05,West,270,6.9,6.9,44,0.00,,,0.00,meteobridge,2013-10-05 18:42:00,
2013-10-05 14:47:00,88.9,63.5,30.06,West,270,3.8,5.4,43,0.00,,,0.00,meteobridge,2013-10-05 18:47:00,
2013-10-05 14:53:00,89.6,64.8,30.06,SW,225,3.1,5.4,44,0.00,,,0.00,meteobridge,2013-10-05 18:53:00,
2013-10-05 14:58:00,89.8,63.7,30.06,SW,225,5.4,7.6,42,0.00,,,0.00,meteobridge,2013-10-05 18:58:00,
2013-10-05 15:03:00,90.7,65.1,30.05,West,270,7.6,7.6,43,0.00,,,0.00,meteobridge,2013-10-05 19:03:00,
2013-10-05 15:08:00,90.0,63.9,30.05,West,270,5.4,5.4,42,0.00,,,0.00,meteobridge,2013-10-05 19:08:00,
2013-10-05 15:13:00,90.3,63.5,30.06,SW,225,3.8,5.4,41,0.00,,,0.00,meteobridge,2013-10-05 19:13:00,
2013-10-05 15:18:00,90.9,63.9,30.05,WSW,248,3.1,5.4,41,0.00,,,0.00,meteobridge,2013-10-05 19:18:00,
2013-10-05 15:24:00,91.9,64.9,30.05,SW,225,3.8,4.5,41,0.00,,,0.00,meteobridge,2013-10-05 19:24:00,
2013-10-05 15:29:00,91.8,66.7,30.05,West,270,6.0,6.0,44,0.00,,,0.00,meteobridge,2013-10-05 19:29:00,
2013-10-05 15:34:00,91.2,64.2,30.05,South,180,3.1,3.1,41,0.00,,,0.00,meteobridge,2013-10-05 19:34:00,
2013-10-05 15:39:00,92.7,65.5,30.05,NE,45,2.2,3.8,41,0.00,,,0.00,meteobridge,2013-10-05 19:39:00,
2013-10-05 15:44:00,93.0,65.1,30.05,East,90,0.7,3.8,40,0.00,,,0.00,meteobridge,2013-10-05 19:44:00,
2013-10-05 15:49:00,93.9,65.8,30.05,South,180,3.1,3.8,40,0.00,,,0.00,meteobridge,2013-10-05 19:49:00,
2013-10-05 15:55:00,94.1,64.6,30.04,South,180,5.4,5.4,38,0.00,,,0.00,meteobridge,2013-10-05 19:55:00,
2013-10-05 16:00:00,93.6,65.7,30.04,West,270,9.8,9.8,40,0.00,,,0.00,meteobridge,2013-10-05 20:00:00,
2013-10-05 16:05:00,91.6,65.8,30.04,SW,225,5.4,8.3,43,0.00,,,0.00,meteobridge,2013-10-05 20:05:00,
2013-10-05 16:10:00,91.9,67.6,30.04,SW,225,6.0,6.0,45,0.00,,,0.00,meteobridge,2013-10-05 20:10:00,
2013-10-05 16:15:00,91.9,67.6,30.04,SW,225,5.4,5.4,45,0.00,,,0.00,meteobridge,2013-10-05 20:15:00,
2013-10-05 16:20:00,92.1,66.4,30.04,SW,225,4.5,5.4,43,0.00,,,0.00,meteobridge,2013-10-05 20:20:00,
2013-10-05 16:26:00,92.5,66.7,30.04,West,270,2.2,4.5,43,0.00,,,0.00,meteobridge,2013-10-05 20:26:00,
2013-10-05 16:31:00,92.1,67.1,30.04,South,180,5.4,5.4,44,0.00,,,0.00,meteobridge,2013-10-05 20:31:00,
2013-10-05 16:36:00,92.1,65.7,30.04,South,180,5.4,5.4,42,0.00,,,0.00,meteobridge,2013-10-05 20:36:00,
2013-10-05 16:41:00,92.8,65.7,30.04,West,270,5.4,8.3,41,0.00,,,0.00,meteobridge,2013-10-05 20:41:00,
2013-10-05 16:46:00,92.7,64.8,30.04,South,180,3.8,3.8,40,0.00,,,0.00,meteobridge,2013-10-05 20:46:00,
2013-10-05 16:51:00,92.5,66.0,30.03,SW,225,1.6,3.1,42,0.00,,,0.00,meteobridge,2013-10-05 20:51:00,
2013-10-05 16:57:00,94.3,65.5,30.03,SE,135,3.1,3.1,39,0.00,,,0.00,meteobridge,2013-10-05 20:57:00,
2013-10-05 17:02:00,94.1,65.3,30.03,South,180,2.2,2.2,39,0.00,,,0.00,meteobridge,2013-10-05 21:02:00,
2013-10-05 17:07:00,95.5,65.8,30.03,South,180,1.6,2.2,38,0.00,,,0.00,meteobridge,2013-10-05 21:07:00,
2013-10-05 17:12:00,95.4,65.7,30.03,SE,135,3.8,3.8,38,0.00,,,0.00,meteobridge,2013-10-05 21:12:00,
2013-10-05 17:17:00,92.5,64.6,30.03,SE,135,3.8,5.4,40,0.00,,,0.00,meteobridge,2013-10-05 21:17:00,
2013-10-05 17:22:00,92.7,66.2,30.03,SW,225,3.1,3.1,42,0.00,,,0.00,meteobridge,2013-10-05 21:22:00,
2013-10-05 17:28:00,93.0,65.8,30.03,South,180,2.2,3.1,41,0.00,,,0.00,meteobridge,2013-10-05 21:28:00,
2013-10-05 17:33:00,92.5,66.0,30.03,South,180,2.2,2.2,42,0.00,,,0.00,meteobridge,2013-10-05 21:33:00,
2013-10-05 17:38:00,91.8,66.0,30.03,ESE,113,3.8,5.4,43,0.00,,,0.00,meteobridge,2013-10-05 21:38:00,
2013-10-05 17:43:00,91.0,64.8,30.03,East,90,2.2,2.2,42,0.00,,,0.00,meteobridge,2013-10-05 21:43:00,
2013-10-05 17:48:00,90.9,65.3,30.03,SE,135,3.8,3.8,43,0.00,,,0.00,meteobridge,2013-10-05 21:48:00,
2013-10-05 17:53:00,90.1,64.6,30.03,South,180,2.2,2.2,43,0.00,,,0.00,meteobridge,2013-10-05 21:53:00,
2013-10-05 17:58:00,89.8,64.2,30.03,SE,135,2.2,4.5,43,0.00,,,0.00,meteobridge,2013-10-05 21:58:00,
2013-10-05 18:04:00,89.4,65.8,30.03,SSE,158,2.2,2.2,46,0.00,,,0.00,meteobridge,2013-10-05 22:04:00,
2013-10-05 18:09:00,88.9,66.0,30.03,SE,135,1.6,1.6,47,0.00,,,0.00,meteobridge,2013-10-05 22:09:00,
2013-10-05 18:14:00,87.8,66.2,30.03,SE,135,3.1,3.1,49,0.00,,,0.00,meteobridge,2013-10-05 22:14:00,
2013-10-05 18:19:00,87.1,67.3,30.03,SE,135,2.2,2.2,52,0.00,,,0.00,meteobridge,2013-10-05 22:19:00,
2013-10-05 18:24:00,86.5,67.5,30.03,ESE,113,1.6,2.2,53,0.00,,,0.00,meteobridge,2013-10-05 22:24:00,
2013-10-05 18:29:00,85.8,67.8,30.04,SE,135,2.2,2.2,55,0.00,,,0.00,meteobridge,2013-10-05 22:29:00,
2013-10-05 18:35:00,85.3,67.8,30.03,SE,135,1.6,2.2,56,0.00,,,0.00,meteobridge,2013-10-05 22:35:00,
2013-10-05 18:40:00,84.4,68.0,30.03,SE,135,2.2,2.2,58,0.00,,,0.00,meteobridge,2013-10-05 22:40:00,
2013-10-05 18:45:00,82.9,67.1,30.03,ESE,113,3.1,3.1,59,0.00,,,0.00,meteobridge,2013-10-05 22:45:00,
2013-10-05 18:50:00,81.5,67.3,30.03,SE,135,2.2,2.2,62,0.00,,,0.00,meteobridge,2013-10-05 22:50:00,
2013-10-05 18:55:00,80.6,66.9,30.03,SE,135,3.1,3.1,63,0.00,,,0.00,meteobridge,2013-10-05 22:55:00,
2013-10-05 19:00:00,79.7,67.3,30.03,SE,135,0.7,2.2,66,0.00,,,0.00,meteobridge,2013-10-05 23:00:00,
2013-10-05 19:06:00,79.3,67.8,30.03,SE,135,2.2,2.2,68,0.00,,,0.00,meteobridge,2013-10-05 23:06:00,
2013-10-05 19:11:00,78.8,67.8,30.03,SE,135,3.8,3.8,69,0.00,,,0.00,meteobridge,2013-10-05 23:11:00,
2013-10-05 19:16:00,78.4,67.8,30.03,SE,135,1.6,2.2,70,0.00,,,0.00,meteobridge,2013-10-05 23:16:00,
2013-10-05 19:21:00,78.3,68.5,30.03,SE,135,1.6,3.1,72,0.00,,,0.00,meteobridge,2013-10-05 23:21:00,
2013-10-05 19:26:00,78.1,68.7,30.04,SE,135,3.1,3.1,73,0.00,,,0.00,meteobridge,2013-10-05 23:26:00,
2013-10-05 19:31:00,77.7,68.4,30.03,SE,135,2.2,3.1,73,0.00,,,0.00,meteobridge,2013-10-05 23:31:00,
2013-10-05 19:37:00,77.5,68.2,30.04,SE,135,2.2,3.1,73,0.00,,,0.00,meteobridge,2013-10-05 23:37:00,
2013-10-05 19:42:00,77.4,68.4,30.04,SE,135,2.2,2.2,74,0.00,,,0.00,meteobridge,2013-10-05 23:42:00,
2013-10-05 19:47:00,77.0,68.0,30.04,SE,135,1.6,2.2,74,0.00,,,0.00,meteobridge,2013-10-05 23:47:00,
2013-10-05 19:52:00,76.6,68.5,30.04,SE,135,0.7,1.6,76,0.00,,,0.00,meteobridge,2013-10-05 23:52:00,
2013-10-05 19:57:00,76.1,68.4,30.04,SE,135,0.0,0.7,77,0.00,,,0.00,meteobridge,2013-10-05 23:57:00,
2013-10-05 20:02:00,75.9,68.2,30.05,SE,135,0.0,0.0,77,0.00,,,0.00,meteobridge,2013-10-06 00:02:00,
2013-10-05 20:08:00,75.6,68.5,30.05,SE,135,1.6,1.6,79,0.00,,,0.00,meteobridge,2013-10-06 00:08:00,
2013-10-05 20:13:00,75.6,68.2,30.04,SE,135,1.6,2.2,78,0.00,,,0.00,meteobridge,2013-10-06 00:13:00,
2013-10-05 20:18:00,75.4,68.4,30.05,SE,135,1.6,1.6,79,0.00,,,0.00,meteobridge,2013-10-06 00:18:00,
2013-10-05 20:23:00,75.2,68.2,30.05,SE,135,1.6,1.6,79,0.00,,,0.00,meteobridge,2013-10-06 00:23:00,
2013-10-05 20:28:00,75.0,68.4,30.05,SE,135,1.6,1.6,80,0.00,,,0.00,meteobridge,2013-10-06 00:28:00,
2013-10-05 20:33:00,74.8,68.5,30.05,SE,135,1.6,1.6,81,0.00,,,0.00,meteobridge,2013-10-06 00:33:00,
2013-10-05 20:39:00,74.7,68.7,30.05,ESE,113,2.2,3.1,82,0.00,,,0.00,meteobridge,2013-10-06 00:39:00,
2013-10-05 20:44:00,74.7,69.1,30.05,East,90,3.1,3.1,83,0.00,,,0.00,meteobridge,2013-10-06 00:44:00,
2013-10-05 20:49:00,74.3,68.7,30.06,SE,135,3.1,3.1,83,0.00,,,0.00,meteobridge,2013-10-06 00:49:00,
2013-10-05 20:54:00,73.9,68.7,30.06,SE,135,2.2,2.2,84,0.00,,,0.00,meteobridge,2013-10-06 00:54:00,
2013-10-05 21:00:00,73.8,73.8,30.06,NNE,23,13.0,13.0,0,46.42,,,0.00,meteobridge,2013-10-06 01:00:00,
2013-10-05 21:05:00,73.6,68.7,30.06,ESE,113,3.8,3.8,85,46.42,,,0.00,meteobridge,2013-10-06 01:05:00,
2013-10-05 21:10:00,73.2,68.2,30.06,East,90,3.1,3.1,84,46.42,,,0.00,meteobridge,2013-10-06 01:10:00,
2013-10-05 21:15:00,73.0,68.2,30.06,SE,135,3.1,3.1,85,46.42,,,0.00,meteobridge,2013-10-06 01:15:00,
2013-10-05 21:21:00,72.9,68.0,30.06,East,90,3.1,3.1,85,46.42,,,0.00,meteobridge,2013-10-06 01:21:00,
2013-10-05 21:26:00,72.9,68.0,30.06,ESE,113,2.2,2.2,85,46.42,,,0.00,meteobridge,2013-10-06 01:26:00,
2013-10-05 21:31:00,72.7,67.8,30.06,SE,135,3.1,3.1,85,46.42,,,0.00,meteobridge,2013-10-06 01:31:00,
2013-10-05 21:36:00,72.5,67.8,30.06,SE,135,3.1,3.1,85,46.42,,,0.00,meteobridge,2013-10-06 01:36:00,
2013-10-05 21:41:00,72.7,67.8,30.06,SE,135,3.1,3.1,85,46.42,,,0.00,meteobridge,2013-10-06 01:41:00,
2013-10-05 21:46:00,72.5,68.0,30.06,East,90,3.1,3.1,86,46.42,,,0.00,meteobridge,2013-10-06 01:46:00,
2013-10-05 21:52:00,72.3,67.8,30.06,SE,135,2.2,3.1,86,46.42,,,0.00,meteobridge,2013-10-06 01:52:00,
2013-10-05 21:57:00,72.1,67.6,30.06,SE,135,2.2,2.2,86,46.42,,,0.00,meteobridge,2013-10-06 01:57:00,
2013-10-05 22:02:00,72.1,68.0,30.06,East,90,2.2,3.1,87,0.00,,,0.00,meteobridge,2013-10-06 02:02:00,
2013-10-05 22:07:00,72.0,67.8,30.06,SE,135,3.1,3.1,87,0.00,,,0.00,meteobridge,2013-10-06 02:07:00,
2013-10-05 22:12:00,71.8,67.6,30.06,East,90,2.2,3.1,87,0.00,,,0.00,meteobridge,2013-10-06 02:12:00,
2013-10-05 22:18:00,71.8,68.0,30.06,East,90,3.1,3.1,88,0.00,,,0.00,meteobridge,2013-10-06 02:18:00,
2013-10-05 22:23:00,71.6,67.8,30.06,East,90,2.2,2.2,88,0.00,,,0.00,meteobridge,2013-10-06 02:23:00,
2013-10-05 22:28:00,71.4,68.0,30.06,ESE,113,3.1,3.1,89,0.00,,,0.00,meteobridge,2013-10-06 02:28:00,
2013-10-05 22:33:00,71.4,68.0,30.07,SE,135,5.4,5.4,89,0.00,,,0.00,meteobridge,2013-10-06 02:33:00,
2013-10-05 22:38:00,71.4,68.0,30.07,SE,135,2.2,2.2,89,0.00,,,0.00,meteobridge,2013-10-06 02:38:00,
2013-10-05 22:43:00,71.6,67.8,30.07,SE,135,3.1,3.1,88,0.00,,,0.00,meteobridge,2013-10-06 02:43:00,
2013-10-05 22:49:00,71.1,67.6,30.07,East,90,2.2,3.1,89,0.00,,,0.00,meteobridge,2013-10-06 02:49:00,
2013-10-05 22:54:00,71.1,68.0,30.07,ESE,113,3.1,3.1,90,0.00,,,0.00,meteobridge,2013-10-06 02:54:00,
2013-10-05 22:59:00,70.7,67.6,30.07,ESE,113,2.2,2.2,90,0.00,,,0.00,meteobridge,2013-10-06 02:59:00,
2013-10-05 23:04:00,70.7,67.6,30.07,SE,135,1.6,1.6,90,0.00,,,0.00,meteobridge,2013-10-06 03:04:00,
2013-10-05 23:09:00,70.7,67.6,30.07,SE,135,0.7,1.6,90,0.00,,,0.00,meteobridge,2013-10-06 03:09:00,
2013-10-05 23:14:00,70.7,67.6,30.07,SE,135,2.2,2.2,90,0.00,,,0.00,meteobridge,2013-10-06 03:14:00,
2013-10-05 23:20:00,71.2,68.2,30.06,SE,135,3.1,3.1,90,0.00,,,0.00,meteobridge,2013-10-06 03:20:00,
2013-10-05 23:25:00,71.4,67.6,30.06,East,90,3.1,3.8,88,0.00,,,0.00,meteobridge,2013-10-06 03:25:00,
2013-10-05 23:30:00,71.8,67.3,30.06,East,90,3.8,4.5,86,0.00,,,0.00,meteobridge,2013-10-06 03:30:00,
2013-10-05 23:35:00,72.0,67.3,30.06,East,90,2.2,2.2,85,0.00,,,0.00,meteobridge,2013-10-06 03:35:00,
2013-10-05 23:40:00,72.0,66.9,30.06,East,90,2.2,4.5,84,0.00,,,0.00,meteobridge,2013-10-06 03:40:00,
2013-10-05 23:45:00,72.1,67.1,30.06,East,90,3.8,3.8,84,0.00,,,0.00,meteobridge,2013-10-06 03:45:00,
2013-10-05 23:51:00,72.1,66.7,30.06,East,90,4.5,4.5,83,0.00,,,0.00,meteobridge,2013-10-06 03:51:00,
2013-10-05 23:56:00,72.1,66.7,30.06,SE,135,3.8,3.8,83,0.00,,,0.00,meteobridge,2013-10-06 03:56:00,